Observations for BENSON RAF, United Kingdom (EGUB)

EGUB 191950Z AUTO 16005KT 9999 // NCD 07/06 Q1004   
EGUB 191850Z AUTO 17003KT 9999 // NCD 06/04 Q1003   
EGUB 191750Z AUTO 24001KT 9999 // FEW035/// 08/05 Q1002 
EGUB 191650Z AUTO 27005KT 9999 // FEW060/// 12/06 Q1002 
EGUB 191550Z AUTO 26006KT 9999 // NCD 13/07 Q1001   
EGUB 191450Z AUTO 25009KT 9999 // FEW044/// BKN050/// 14/07 Q1001   
EGUB 191350Z 25011KT 9999 SCT030 14/07 Q1000 NOSIG RMK BLU BLU  
EGUB 191320Z 25009KT 9999 SCT032 14/07 Q1000 NOSIG RMK BLU BLU  
EGUB 191250Z 23012KT 9999 SCT030 SCT045 14/07 Q1000 NOSIG RMK BLU BLU   
EGUB 191220Z 24013KT 9999 SCT028 14/07 Q1000 NOSIG RMK BLU BLU  
EGUB 191150Z 25010KT 9999 SCT026 14/08 Q1000 NOSIG RMK BLU BLU  
EGUB 191122Z 22012KT 9999 SCT024 14/09 Q0999 BECMG SCT025 RMK WHT BECMG BLU 
EGUB 191050Z 23012KT 9999 SCT023 13/08 Q1000 BECMG SCT025 RMK WHT BECMG BLU 
EGUB 191020Z 22009KT 9999 FEW018 SCT050 12/08 Q0999 TEMPO SCT022 RMK BLU TEMPO WHT  
EGUB 190950Z 22009KT 9999 FEW016 SCT050 12/09 Q0999 TEMPO SCT022 RMK BLU TEMPO WHT  
EGUB 190920Z 21010KT 9999 FEW014 11/09 Q0999 TEMPO SCT020 RMK BLU TEMPO WHT 
EGUB 190850Z 21010KT 9999 FEW012 11/08 Q0999 TEMPO SCT020 RMK BLU TEMPO WHT 
EGUB 190820Z 21007KT 9999 FEW010 10/08 Q0999 TEMPO SCT018 RMK BLU TEMPO WHT 
EGUB 190750Z 19007KT CAVOK 09/08 Q0999 TEMPO SCT018 RMK BLU TEMPO WHT   
EGUB 190720Z 20006KT 9999 FEW045 08/07 Q0998 NOSIG RMK BLU BLU  
EGUB 190650Z 20007KT 9999 FEW040 08/07 Q0998 NOSIG RMK BLU BLU  
EGUB 190550Z AUTO 18009KT 9999 // NCD 08/07 Q0997   
EGUB 190450Z AUTO 19007KT 9999 // NCD 08/08 Q0997   
EGUB 190350Z AUTO 17006KT 9999 // FEW210/// 08/07 Q0997 
EGUB 190250Z AUTO 18010KT 9999 // BKN200/// 09/08 Q0997 
EGUB 190150Z AUTO 18010KT 9999 // BKN200/// 09/08 Q0998 
EGUB 190050Z AUTO 18009KT 9999 // NCD 09/08 Q0998   
EGUB 182350Z AUTO 18010KT 9999 // NCD 10/08 Q0998   
EGUB 182250Z AUTO 18011KT 9999 // NCD 10/08 Q0998   
EGUB 182150Z AUTO 18011KT 9999 // NCD 10/08 Q0998   
EGUB 182050Z AUTO 19010KT 9999 // NCD 11/08 Q0998   
EGUB 181950Z AUTO 18011KT 9999 // NCD 11/08 Q0998